Time;durP1;ratioP1;P1;durP2;ratioP2;P2;SDS_P1;SDS_P2;PMS_P1;PMS_P2;Temp;Humidity;BMP_temperature;BMP_pressure;BME280_temperature;BME280_humidity;BME280_pressure;Samples;Min_cycle;Max_cycle;Signal;HPM_P1;HPM_P2
2023/12/12 00:01:23;;;;;;;4.65;1.45;;;12.40;4.70;;;;;;5090216;28;20487;-76
2023/12/12 00:03:49;;;;;;;4.70;1.70;;;;;;;;;;5093676;28;20376;-76
2023/12/12 00:06:15;;;;;;;3.97;1.60;;;;;;;;;;5094379;28;20044;-75
2023/12/12 00:08:42;;;;;;;6.60;1.42;;;;;;;;;;5077506;28;20036;-75
2023/12/12 00:11:08;;;;;;;7.43;1.40;;;;;;;;;;5077550;28;20089;-76
2023/12/12 00:13:34;;;;;;;4.68;1.40;;;;;;;;;;5094310;28;20388;-75
2023/12/12 00:16:00;;;;;;;6.88;1.40;;;;;;;;;;5094203;28;20043;-75
2023/12/12 00:18:26;;;;;;;12.65;1.73;;;;;;;;;;5094205;28;20048;-75
2023/12/12 00:20:52;;;;;;;9.43;1.60;;;;;;;;;;5093903;28;20392;-76
2023/12/12 00:23:18;;;;;;;5.53;1.50;;;;;;;;;;5077160;28;20101;-76
2023/12/12 00:25:44;;;;;;;7.47;1.58;;;;;;;;;;5077316;28;20040;-77
2023/12/12 00:28:09;;;;;;;5.85;1.33;;;;;;;;;;5094070;28;20043;-75
2023/12/12 00:30:35;;;;;;;7.15;1.95;;;;;;;;;;5094103;28;20123;-75
2023/12/12 00:33:01;;;;;;;4.70;1.50;;;;;;;;;;5094280;28;20048;-75
2023/12/12 00:35:27;;;;;;;4.25;1.75;;;;;;;;;;5093789;28;20096;-75
2023/12/12 00:37:53;;;;;;;4.15;1.67;;;;;;;;;;5076931;28;20083;-75
2023/12/12 00:40:19;;;;;;;6.47;1.65;;;;;;;;;;5093571;28;20506;-75
2023/12/12 00:42:45;;;;;;;4.82;1.40;;;;;;;;;;5094012;28;20035;-75
2023/12/12 00:45:11;;;;;;;5.47;1.70;;;;;;;;;;5076712;28;20040;-75
2023/12/12 00:47:37;;;;;;;4.60;1.45;;;;;;;;;;5093728;28;20036;-75
2023/12/12 00:50:03;;;;;;;7.68;1.42;;;11.80;10.80;;;;;;5093656;28;20063;-76
2023/12/12 00:52:29;;;;;;;5.78;1.52;;;;;;;;;;5076726;28;20040;-75
2023/12/12 00:54:56;;;;;;;6.35;1.70;;;;;;;;;;5093433;28;20048;-75
2023/12/12 00:57:22;;;;;;;6.45;1.60;;;;;;;;;;5093578;28;20169;-75
2023/12/12 00:59:47;;;;;;;14.32;2.67;;;11.70;12.40;;;;;;5076279;28;20126;-75
2023/12/12 01:02:13;;;;;;;6.53;1.58;;;;;;;;;;5093482;28;20385;-76
2023/12/12 01:04:39;;;;;;;7.05;1.70;;;;;;;;;;5093441;28;20040;-75
2023/12/12 01:07:05;;;;;;;7.90;1.67;;;;;;;;;;5093391;28;20373;-75
2023/12/12 01:09:31;;;;;;;5.65;1.92;;;;;;;;;;5076165;28;20415;-75
2023/12/12 01:11:57;;;;;;;9.07;1.90;;;;;;;;;;5076446;28;20071;-75
2023/12/12 01:14:23;;;;;;;8.95;2.10;;;;;;;;;;5092970;28;20044;-75
2023/12/12 01:16:49;;;;;;;5.93;1.88;;;;;;;;;;5093207;28;20564;-76
2023/12/12 01:19:15;;;;;;;8.70;2.33;;;;;;;;;;5076161;28;20075;-75
2023/12/12 01:21:41;;;;;;;4.63;1.65;;;;;;;;;;5093005;28;20563;-75
2023/12/12 01:24:07;;;;;;;7.43;2.03;;;11.40;16.00;;;;;;5092782;28;20105;-75
2023/12/12 01:26:33;;;;;;;9.32;2.15;;;;;;;;;;5093012;28;20068;-76
2023/12/12 01:28:59;;;;;;;11.70;2.22;;;;;;;;;;5076031;28;20093;-75
2023/12/12 01:31:25;;;;;;;6.32;1.80;;;;;;;;;;5092685;28;20043;-75
2023/12/12 01:33:51;;;;;;;3.10;1.65;;;;;;;;;;5076132;28;20048;-75
2023/12/12 01:36:17;;;;;;;7.63;2.05;;;;;;;;;;5075872;28;20070;-76
2023/12/12 01:38:44;;;;;;;8.90;2.28;;;11.40;14.00;;;;;;5092753;28;20044;-76
2023/12/12 01:41:10;;;;;;;4.22;1.67;;;;;;;;;;5092617;28;20180;-75
2023/12/12 01:43:36;;;;;;;6.30;2.20;;;;;;;;;;5092618;28;20058;-75
2023/12/12 01:46:08;;;;;;;13.00;3.38;;;11.60;13.40;;;;;;5075708;28;20427;-75
2023/12/12 01:48:35;;;;;;;3.92;1.65;;;;;;;;;;5092570;28;20052;-74
2023/12/12 01:51:01;;;;;;;6.70;2.63;;;;;;;;;;5075658;28;20071;-75
2023/12/12 01:53:34;;;;;;;5.65;1.90;;;11.40;13.60;;;;;;5092786;28;20040;-75
2023/12/12 01:56:01;;;;;;;5.07;2.03;;;;;;;;;;5092719;28;20032;-75
2023/12/12 01:58:27;;;;;;;4.45;1.95;;;;;;;;;;5093001;28;20043;-75
2023/12/12 02:00:53;;;;;;;6.53;1.65;;;;;;;;;;5092105;28;20075;-75
2023/12/12 02:03:20;;;;;;;6.40;1.70;;;;;;;;;;5092217;28;20040;-75
2023/12/12 02:05:47;;;;;;;5.20;2.08;;;11.20;14.10;;;;;;5092338;28;20036;-76
2023/12/12 02:08:13;;;;;;;9.52;1.92;;;;;;;;;;5075320;28;20042;-76
2023/12/12 02:10:40;;;;;;;5.45;1.70;;;;;;;;;;5091964;28;20044;-75
2023/12/12 02:13:06;;;;;;;4.35;1.77;;;;;;;;;;5092408;28;20044;-75
2023/12/12 02:15:33;;;;;;;8.75;2.08;;;;;;;;;;5091843;28;20040;-75
2023/12/12 02:17:59;;;;;;;5.25;1.80;;;;;;;;;;5092022;28;20047;-76
2023/12/12 02:20:25;;;;;;;5.18;2.03;;;;;;;;;;5091686;28;20040;-76
2023/12/12 02:22:51;;;;;;;5.20;1.92;;;;;;;;;;5091981;28;20036;-75
2023/12/12 02:25:18;;;;;;;7.55;2.55;;;;;;;;;;5091221;28;20032;-75
2023/12/12 02:27:44;;;;;;;5.32;1.98;;;;;;;;;;5074868;28;20131;-75
2023/12/12 02:30:11;;;;;;;10.43;2.38;;;;;;;;;;5091453;28;20131;-75
2023/12/12 02:32:37;;;;;;;6.05;2.10;;;;;;;;;;5091771;28;20040;-76
2023/12/12 02:35:04;;;;;;;4.55;2.20;;;;;;;;;;5091509;28;20066;-77
2023/12/12 02:37:30;;;;;;;8.20;1.98;;;;;;;;;;5074946;28;20098;-75
2023/12/12 02:39:56;;;;;;;6.65;3.03;;;;;;;;;;5091252;28;20040;-76
2023/12/12 02:42:22;;;;;;;6.13;2.63;;;;;;;;;;5091606;28;20131;-76
2023/12/12 02:44:48;;;;;;;5.15;2.10;;;;;;;;;;5091231;28;20039;-76
2023/12/12 02:47:14;;;;;;;7.15;2.40;;;;;;;;;;5074504;28;20039;-75
2023/12/12 02:49:40;;;;;;;7.45;2.72;;;;;;;;;;5091144;28;20039;-74
2023/12/12 02:52:06;;;;;;;7.03;3.75;;;;;;;;;;5074503;28;20127;-75
2023/12/12 02:54:32;;;;;;;5.35;2.58;;;;;;;;;;5074339;28;20071;-75
2023/12/12 02:56:57;;;;;;;7.32;2.70;;;10.90;24.30;;;;;;5074407;28;20071;-75
2023/12/12 02:59:23;;;;;;;5.88;2.65;;;;;;;;;;5091303;28;20043;-75
2023/12/12 03:01:49;;;;;;;6.95;2.30;;;;;;;;;;5091207;28;20036;-75
2023/12/12 03:04:15;;;;;;;7.05;2.00;;;;;;;;;;5091210;28;20073;-75
2023/12/12 03:06:41;;;;;;;6.95;2.70;;;;;;;;;;5074490;28;20566;-75
2023/12/12 03:09:07;;;;;;;8.48;2.63;;;;;;;;;;5074165;28;20127;-74
2023/12/12 03:11:34;;;;;;;7.90;2.58;;;;;;;;;;5090768;28;20392;-75
2023/12/12 03:14:00;;;;;;;5.50;2.30;;;;;;;;;;5090692;28;20080;-76
2023/12/12 03:16:26;;;;;;;11.13;3.47;;;11.10;26.80;;;;;;5090951;28;20079;-77
2023/12/12 03:18:52;;;;;;;4.90;2.83;;;;;;;;;;5090824;28;20071;-75
2023/12/12 03:21:18;;;;;;;5.93;2.80;;;;;;;;;;5090912;28;20047;-75
2023/12/12 03:23:46;;;;;;;7.75;2.75;;;11.10;27.80;;;;;;5091121;28;20044;-74
2023/12/12 03:26:12;;;;;;;6.85;2.90;;;;;;;;;;5091270;28;20517;-75
2023/12/12 03:28:38;;;;;;;9.43;2.55;;;;;;;;;;5090582;28;20040;-75
2023/12/12 03:31:05;;;;;;;6.65;2.60;;;;;;;;;;5090476;28;20040;-75
2023/12/12 03:33:30;;;;;;;6.28;2.63;;;;;;;;;;5090818;28;20499;-75
2023/12/12 03:35:56;;;;;;;7.00;2.67;;;;;;;;;;5073721;28;20032;-75
2023/12/12 03:38:22;;;;;;;8.10;3.38;;;;;;;;;;5073001;28;20385;-74
2023/12/12 03:40:48;;;;;;;6.35;2.78;;;;;;;;;;5090295;28;20044;-74
2023/12/12 03:43:14;;;;;;;8.02;2.90;;;;;;;;;;5090455;28;20042;-75
2023/12/12 03:45:40;;;;;;;10.48;3.33;;;;;;;;;;5090585;28;20064;-74
2023/12/12 03:48:06;;;;;;;9.90;3.20;;;;;;;;;;5090481;28;20503;-74
2023/12/12 03:50:32;;;;;;;7.70;3.03;;;;;;;;;;5090197;28;20048;-75
2023/12/12 03:52:58;;;;;;;8.27;2.92;;;;;;;;;;5090659;28;20168;-74
2023/12/12 03:55:24;;;;;;;6.00;2.80;;;;;;;;;;5090326;28;20040;-75
2023/12/12 03:57:50;;;;;;;7.57;3.50;;;;;;;;;;5073392;28;20039;-73
2023/12/12 04:00:16;;;;;;;6.70;3.30;;;11.10;33.00;;;;;;5090174;28;20046;-74
2023/12/12 04:02:42;;;;;;;12.55;3.72;;;;;;;;;;5090624;28;20039;-74
2023/12/12 04:05:09;;;;;;;11.55;3.10;;;11.20;30.00;;;;;;5073262;28;20032;-74
2023/12/12 04:07:36;;;;;;;8.02;2.63;;;;;;;;;;5073407;28;20036;-75
2023/12/12 04:10:03;;;;;;;10.30;2.80;;;11.00;29.40;;;;;;5091285;28;20530;-74
2023/12/12 04:12:29;;;;;;;5.88;2.80;;;;;;;;;;5091412;28;20051;-74
2023/12/12 04:14:55;;;;;;;10.65;3.50;;;;;;;;;;5091501;28;20431;-75
2023/12/12 04:17:21;;;;;;;7.35;3.58;;;;;;;;;;5091479;28;20122;-74
2023/12/12 04:19:47;;;;;;;7.15;2.88;;;;;;;;;;5091881;28;20082;-75
2023/12/12 04:22:13;;;;;;;5.97;3.00;;;;;;;;;;5091536;28;20036;-74
2023/12/12 04:24:39;;;;;;;5.15;2.92;;;11.10;34.60;;;;;;5091193;28;20050;-74
2023/12/12 04:27:05;;;;;;;10.20;3.25;;;;;;;;;;5090117;28;20097;-75
2023/12/12 04:29:31;;;;;;;8.85;3.20;;;;;;;;;;5089854;28;20046;-75
2023/12/12 04:31:57;;;;;;;8.73;3.10;;;;;;;;;;5090089;28;20119;-75
2023/12/12 04:34:23;;;;;;;10.55;4.13;;;;;;;;;;5090132;28;20098;-74
2023/12/12 04:36:49;;;;;;;8.50;3.35;;;;;;;;;;5073291;28;20321;-74
2023/12/12 04:39:18;;;;;;;7.65;2.88;;;;;;;;;;5089830;28;20127;-73
2023/12/12 04:41:44;;;;;;;5.65;2.88;;;;;;;;;;5091460;28;20044;-74
2023/12/12 04:44:10;;;;;;;11.98;3.65;;;;;;;;;;5090018;28;20115;-75
2023/12/12 04:46:36;;;;;;;9.07;3.70;;;;;;;;;;5091317;28;20047;-75
2023/12/12 04:49:03;;;;;;;9.80;4.35;;;;;;;;;;5092784;28;20510;-74
2023/12/12 04:51:29;;;;;;;7.40;3.30;;;;;;;;;;5094807;28;20044;-75
2023/12/12 04:53:55;;;;;;;13.50;4.55;;;;;;;;;;5094689;28;20119;-74
2023/12/12 04:56:21;;;;;;;7.65;3.95;;;;;;;;;;5095107;28;20074;-75
2023/12/12 04:58:47;;;;;;;12.40;4.63;;;;;;;;;;5094922;28;20406;-74
2023/12/12 05:01:17;;;;;;;17.45;5.25;;;11.20;36.50;;;;;;5093325;28;20036;-74
2023/12/12 05:03:42;;;;;;;12.95;6.10;;;11.30;39.20;;;;;;5093417;28;20040;-75
2023/12/12 05:06:09;;;;;;;14.88;5.93;;;11.20;37.70;;;;;;5094713;28;20506;-75
2023/12/12 05:08:35;;;;;;;13.73;5.60;;;;;;;;;;5094587;28;20035;-75
2023/12/12 05:11:01;;;;;;;13.80;6.65;;;;;;;;;;5094609;28;20043;-75
2023/12/12 05:13:26;;;;;;;15.50;6.78;;;11.20;36.30;;;;;;5094784;28;20032;-75
2023/12/12 05:15:52;;;;;;;14.30;6.45;;;;;;;;;;5094557;28;20407;-75
2023/12/12 05:18:19;;;;;;;15.98;6.32;;;;;;;;;;5093404;28;20283;-74
2023/12/12 05:20:45;;;;;;;13.20;6.13;;;;;;;;;;5094037;28;20507;-74
2023/12/12 05:23:11;;;;;;;16.27;5.93;;;;;;;;;;5094281;28;20228;-74
2023/12/12 05:25:37;;;;;;;13.13;6.88;;;;;;;;;;5094122;28;20043;-74
2023/12/12 05:28:03;;;;;;;13.45;5.53;;;;;;;;;;5094352;28;20123;-75
2023/12/12 05:30:29;;;;;;;18.27;6.82;;;;;;;;;;5094050;28;20051;-75
2023/12/12 05:32:55;;;;;;;18.35;6.25;;;;;;;;;;5094097;28;20047;-75
2023/12/12 05:35:22;;;;;;;13.63;6.65;;;;;;;;;;5092621;28;20044;-74
2023/12/12 05:37:48;;;;;;;14.65;6.15;;;;;;;;;;5092643;28;20051;-77
2023/12/12 05:40:14;;;;;;;13.50;6.30;;;;;;;;;;5092529;28;20040;-77
2023/12/12 05:42:41;;;;;;;11.90;5.53;;;10.50;36.90;;;;;;5094145;28;20174;-77
2023/12/12 05:45:07;;;;;;;15.73;6.65;;;10.60;41.80;;;;;;5094015;28;20032;-77
2023/12/12 05:47:33;;;;;;;17.75;6.95;;;;;;;;;;5093836;28;20036;-75
2023/12/12 05:49:59;;;;;;;16.58;6.72;;;;;;;;;;5092301;28;20518;-75
2023/12/12 05:52:28;;;;;;;12.13;6.57;;;;;;;;;;5092546;28;20059;-75
2023/12/12 05:54:54;;;;;;;16.25;8.07;;;;;;;;;;5093727;28;20044;-76
2023/12/12 05:57:20;;;;;;;16.85;7.72;;;;;;;;;;5093823;28;20040;-75
2023/12/12 05:59:47;;;;;;;18.45;8.15;;;10.90;41.40;;;;;;5092697;28;20134;-76
2023/12/12 06:02:13;;;;;;;24.48;8.50;;;;;;;;;;5093363;28;20032;-75
2023/12/12 06:04:39;;;;;;;21.70;8.27;;;;;;;;;;5092074;28;20496;-75
2023/12/12 06:07:05;;;;;;;17.85;7.70;;;;;;;;;;5092300;28;20036;-75
2023/12/12 06:09:32;;;;;;;23.33;8.88;;;10.70;44.80;;;;;;5091975;28;20115;-75
2023/12/12 06:12:01;;;;;;;16.40;7.88;;;10.90;46.10;;;;;;5093506;28;20094;-75
2023/12/12 06:14:27;;;;;;;15.13;7.38;;;;;;;;;;5093195;28;20043;-75
2023/12/12 06:16:53;;;;;;;21.13;7.88;;;;;;;;;;5093451;28;20495;-75
2023/12/12 06:19:19;;;;;;;15.13;7.55;;;;;;;;;;5091853;28;20421;-75
2023/12/12 06:21:52;;;;;;;18.25;8.63;;;;;;;;;;5092150;28;20048;-76
2023/12/12 06:24:18;;;;;;;20.63;7.63;;;;;;;;;;5093138;28;20040;-75
2023/12/12 06:26:44;;;;;;;15.40;8.18;;;;;;;;;;5093186;28;20040;-75
2023/12/12 06:29:10;;;;;;;20.92;8.35;;;;;;;;;;5093093;28;20131;-75
2023/12/12 06:31:36;;;;;;;14.15;7.60;;;;;;;;;;5092780;28;20050;-75
2023/12/12 06:34:01;;;;;;;20.73;9.15;;;10.60;53.90;;;;;;5092742;28;20036;-75
2023/12/12 06:36:27;;;;;;;25.17;9.25;;;;;;;;;;5093156;28;20085;-75
2023/12/12 06:38:53;;;;;;;17.88;8.55;;;10.70;53.40;;;;;;5091531;28;20080;-75
2023/12/12 06:41:19;;;;;;;15.95;8.07;;;;;;;;;;5092730;28;20032;-75
2023/12/12 06:43:45;;;;;;;16.00;8.10;;;;;;;;;;5092827;28;20035;-75
2023/12/12 06:46:11;;;;;;;15.82;8.57;;;;;;;;;;5092564;28;20039;-75
2023/12/12 06:48:37;;;;;;;19.02;9.35;;;;;;;;;;5092545;28;20036;-75
2023/12/12 06:51:11;;;;;;;17.17;8.10;;;10.90;49.90;;;;;;5092861;28;20411;-76
2023/12/12 06:53:38;;;;;;;17.50;9.32;;;;;;;;;;5091332;28;20047;-75
2023/12/12 06:56:05;;;;;;;16.50;8.95;;;;;;;;;;5091162;28;20050;-75
2023/12/12 06:58:31;;;;;;;18.30;8.52;;;;;;;;;;5092614;28;20415;-75
2023/12/12 07:00:57;;;;;;;28.60;10.88;;;;;;;;;;5092093;28;20051;-74
2023/12/12 07:03:23;;;;;;;25.77;11.60;;;;;;;;;;5091377;28;20051;-74
2023/12/12 07:05:53;;;;;;;38.13;10.82;;;;;;;;;;5092559;28;20032;-75
2023/12/12 07:08:19;;;;;;;37.28;11.48;;;11.20;62.00;;;;;;5092281;28;20071;-75
2023/12/12 07:10:45;;;;;;;37.33;12.48;;;11.00;58.90;;;;;;5092080;28;20036;-75
2023/12/12 07:13:11;;;;;;;76.32;15.32;;;;;;;;;;5090827;28;20166;-75
2023/12/12 07:15:38;;;;;;;30.27;11.02;;;;;;;;;;5090728;28;20044;-76
2023/12/12 07:18:09;;;;;;;71.68;16.77;;;;;;;;;;5092427;28;20046;-74
2023/12/12 07:20:38;;;;;;;44.83;13.40;;;11.20;66.80;;;;;;5092062;28;20225;-76
2023/12/12 07:23:04;;;;;;;56.28;14.77;;;;;;;;;;5091942;28;20169;-76
2023/12/12 07:25:30;;;;;;;111.72;16.48;;;;;;;;;;5090608;28;20046;-76
2023/12/12 07:27:56;;;;;;;81.55;15.32;;;;;;;;;;5092025;28;20376;-75
2023/12/12 07:30:22;;;;;;;234.13;25.17;;;;;;;;;;5091943;28;20059;-75
2023/12/12 07:32:48;;;;;;;161.10;20.52;;;;;;;;;;5092153;28;20503;-75
2023/12/12 07:35:16;;;;;;;138.93;18.52;;;;;;;;;;5091961;28;20040;-75
2023/12/12 07:37:42;;;;;;;119.55;17.60;;;;;;;;;;5091985;28;20048;-76
2023/12/12 07:40:08;;;;;;;81.32;14.35;;;11.30;70.30;;;;;;5091608;28;20059;-75
2023/12/12 07:42:34;;;;;;;86.53;13.98;;;;;;;;;;5091836;28;20119;-75
2023/12/12 07:45:02;;;;;;;109.50;15.85;;;;;;;;;;5090497;28;20044;-76
2023/12/12 07:47:28;;;;;;;189.48;20.83;;;;;;;;;;5090678;28;20044;-75
2023/12/12 07:49:54;;;;;;;108.07;15.63;;;;;;;;;;5090236;28;20044;-75
2023/12/12 07:52:20;;;;;;;88.57;14.65;;;;;;;;;;5090430;28;20044;-76
2023/12/12 07:54:46;;;;;;;158.50;19.02;;;;;;;;;;5090256;28;20122;-76
2023/12/12 07:57:12;;;;;;;127.00;15.77;;;;;;;;;;5091596;28;20135;-76
2023/12/12 07:59:38;;;;;;;309.42;31.20;;;;;;;;;;5091596;28;20052;-75
2023/12/12 08:02:04;;;;;;;125.13;16.33;;;;;;;;;;5091636;28;20036;-76
2023/12/12 08:04:30;;;;;;;166.48;19.17;;;;;;;;;;5090194;28;20048;-75
2023/12/12 08:06:57;;;;;;;107.05;18.25;;;;;;;;;;5091630;28;20040;-76
2023/12/12 08:09:23;;;;;;;103.53;16.63;;;;;;;;;;5091284;28;20055;-75
2023/12/12 08:11:49;;;;;;;207.43;22.55;;;;;;;;;;5091379;28;20044;-76
2023/12/12 08:14:15;;;;;;;246.30;27.50;;;;;;;;;;5091483;28;20123;-76
2023/12/12 08:16:41;;;;;;;111.05;17.98;;;;;;;;;;5091972;28;20052;-76
2023/12/12 08:19:07;;;;;;;117.32;21.17;;;;;;;;;;5091459;28;20048;-76
2023/12/12 08:21:34;;;;;;;195.40;24.25;;;;;;;;;;5091301;28;20415;-75
2023/12/12 08:24:00;;;;;;;156.40;21.55;;;;;;;;;;5092921;28;20044;-76
2023/12/12 08:26:28;;;;;;;154.60;21.88;;;;;;;;;;5094946;28;20568;-75
2023/12/12 08:28:55;;;;;;;191.85;22.17;;;;;;;;;;5095463;28;20115;-76
2023/12/12 08:31:23;;;;;;;103.63;19.70;;;;;;;;;;5095282;28;20036;-71
2023/12/12 08:33:49;;;;;;;136.27;21.00;;;;;;;;;;5094846;28;20040;-72
2023/12/12 08:36:15;;;;;;;118.53;19.75;;;;;;;;;;5095209;28;20119;-71
2023/12/12 08:38:40;;;;;;;145.43;22.52;;;11.90;79.20;;;;;;5094461;28;20084;-71
2023/12/12 08:41:06;;;;;;;65.95;17.38;;;11.60;80.30;;;;;;5089819;28;20483;-72
2023/12/12 08:43:32;;;;;;;136.20;21.20;;;;;;;;;;5094720;28;20036;-71
2023/12/12 08:45:58;;;;;;;171.88;26.70;;;11.90;79.80;;;;;;5094272;28;20040;-72
2023/12/12 08:48:24;;;;;;;153.68;22.48;;;;;;;;;;5094418;28;20040;-70
2023/12/12 08:50:50;;;;;;;94.80;20.40;;;;;;;;;;5094351;28;20085;-71
2023/12/12 08:53:16;;;;;;;70.63;19.15;;;;;;;;;;5094100;28;20180;-71
2023/12/12 08:55:42;;;;;;;89.15;19.42;;;;;;;;;;5094273;28;20036;-71
2023/12/12 08:58:09;;;;;;;216.52;34.95;;;;;;;;;;5093862;28;20036;-71
2023/12/12 09:00:35;;;;;;;60.08;21.10;;;;;;;;;;5074257;28;20123;-71
2023/12/12 09:03:01;;;;;;;69.53;21.17;;;;;;;;;;5087642;28;20452;-72
2023/12/12 09:05:27;;;;;;;55.97;23.25;;;;;;;;;;5094412;28;20040;-72
2023/12/12 09:07:52;;;;;;;100.15;28.08;;;12.00;81.70;;;;;;5094514;28;20048;-72
2023/12/12 09:10:18;;;;;;;146.55;38.47;;;;;;;;;;5094414;28;20425;-71
2023/12/12 09:12:44;;;;;;;84.35;25.90;;;11.90;82.20;;;;;;5094628;28;20039;-71
2023/12/12 09:15:10;;;;;;;170.40;34.55;;;;;;;;;;5094488;28;20487;-72
2023/12/12 09:17:36;;;;;;;93.20;26.15;;;;;;;;;;5094336;28;20047;-70
2023/12/12 09:20:03;;;;;;;79.70;25.45;;;11.90;85.30;;;;;;5093889;28;20479;-72
2023/12/12 09:22:30;;;;;;;59.47;25.98;;;12.30;84.90;;;;;;5094085;28;20087;-72
2023/12/12 09:24:56;;;;;;;118.20;29.90;;;;;;;;;;5110252;22;20098;-68
2023/12/12 09:27:22;;;;;;;96.97;25.92;;;;;;;;;;5072519;28;20047;-68
2023/12/12 09:29:47;;;;;;;106.35;26.25;;;11.90;84.40;;;;;;5072539;28;20036;-68
2023/12/12 09:32:13;;;;;;;74.97;22.50;;;11.90;84.90;;;;;;5072853;28;20405;-67
2023/12/12 09:34:39;;;;;;;107.57;25.90;;;;;;;;;;5075789;28;20041;-68
2023/12/12 09:37:05;;;;;;;78.22;22.05;;;;;;;;;;5092784;28;20101;-68
2023/12/12 09:39:31;;;;;;;80.13;21.77;;;;;;;;;;5093730;28;20093;-68
2023/12/12 09:41:59;;;;;;;57.38;19.58;;;11.90;78.50;;;;;;5092660;28;20032;-68
2023/12/12 09:44:29;;;;;;;52.17;21.10;;;;;;;;;;5092481;28;20075;-68
2023/12/12 09:46:55;;;;;;;44.58;19.38;;;;;;;;;;5093832;28;20036;-67
2023/12/12 09:49:22;;;;;;;164.77;32.63;;;11.90;78.70;;;;;;5092121;28;20044;-68
2023/12/12 09:51:50;;;;;;;75.90;21.60;;;11.90;82.30;;;;;;5093959;28;20072;-68
2023/12/12 09:54:17;;;;;;;92.93;23.98;;;;;;;;;;5093684;28;20044;-68
2023/12/12 09:56:44;;;;;;;106.28;25.23;;;11.70;78.80;;;;;;5075540;28;20048;-68
2023/12/12 09:59:10;;;;;;;64.82;20.60;;;11.60;82.50;;;;;;5092510;28;20051;-67
2023/12/12 10:01:36;;;;;;;52.10;19.65;;;;;;;;;;5091949;28;20027;-67
2023/12/12 10:04:06;;;;;;;100.50;24.25;;;;;;;;;;5093440;28;20059;-68
2023/12/12 10:06:41;;;;;;;42.28;18.00;;;11.90;79.80;;;;;;5075520;28;20037;-68
2023/12/12 10:09:07;;;;;;;41.85;20.48;;;12.10;82.70;;;;;;5073350;28;20036;-68
2023/12/12 10:11:33;;;;;;;48.08;21.27;;;11.90;82.80;;;;;;5071658;28;20072;-67
2023/12/12 10:14:00;;;;;;;54.70;21.98;;;12.80;81.10;;;;;;5072463;28;20503;-67
2023/12/12 10:16:27;;;;;;;60.00;21.83;;;;;;;;;;5073059;28;20211;-68
2023/12/12 10:18:53;;;;;;;80.45;27.35;;;;;;;;;;5073072;28;20037;-67
2023/12/12 10:21:20;;;;;;;60.30;23.67;;;11.90;80.90;;;;;;5072805;28;20505;-68
2023/12/12 10:23:50;;;;;;;38.40;20.63;;;12.30;80.30;;;;;;5073175;28;20093;-67
2023/12/12 10:26:26;;;;;;;59.03;24.33;;;;;;;;;;5071517;28;20105;-68
2023/12/12 10:28:54;;;;;;;41.08;22.52;;;12.20;82.30;;;;;;5071730;28;20484;-67
2023/12/12 10:31:20;;;;;;;37.97;21.48;;;11.80;82.30;;;;;;5071535;28;20037;-68
2023/12/12 10:33:46;;;;;;;46.95;23.10;;;;;;;;;;5071879;28;20040;-68
2023/12/12 10:36:13;;;;;;;44.05;24.75;;;;;;;;;;5087387;28;20040;-68
2023/12/12 10:38:39;;;;;;;50.55;24.90;;;12.40;79.50;;;;;;5092075;28;20059;-68
2023/12/12 10:41:12;;;;;;;43.65;24.58;;;;;;;;;;5091258;28;20047;-68
2023/12/12 10:43:40;;;;;;;43.35;23.00;;;;;;;;;;5092937;28;20046;-68
2023/12/12 10:46:13;;;;;;;39.25;22.00;;;12.70;81.00;;;;;;5091188;28;20044;-68
2023/12/12 10:48:46;;;;;;;42.55;24.05;;;12.70;82.20;;;;;;5074705;28;20510;-68
2023/12/12 10:51:12;;;;;;;40.33;22.27;;;;;;;;;;5078377;28;20028;-68
2023/12/12 10:53:40;;;;;;;37.90;21.90;;;12.90;82.80;;;;;;5070857;28;20120;-68
2023/12/12 10:56:07;;;;;;;42.35;23.42;;;13.10;82.40;;;;;;5071844;28;20044;-68
2023/12/12 10:58:35;;;;;;;37.55;22.38;;;12.90;82.80;;;;;;5071318;28;20557;-69
2023/12/12 11:01:02;;;;;;;46.60;23.80;;;12.90;84.10;;;;;;5072284;28;20040;-68
2023/12/12 11:03:29;;;;;;;37.30;21.88;;;12.70;79.70;;;;;;5054628;28;20041;-67
2023/12/12 11:05:58;;;;;;;37.33;21.25;;;12.90;77.30;;;;;;5072321;28;20519;-67
2023/12/12 11:08:24;;;;;;;42.10;21.38;;;13.00;77.20;;;;;;5071130;28;20040;-68
2023/12/12 11:10:54;;;;;;;41.10;22.05;;;;;;;;;;5072309;28;20043;-68
2023/12/12 11:13:22;;;;;;;36.50;21.25;;;12.80;79.30;;;;;;5072478;28;20214;-68
2023/12/12 11:15:49;;;;;;;34.72;20.77;;;;;;;;;;5071244;28;20377;-69
2023/12/12 11:18:15;;;;;;;32.35;19.50;;;;;;;;;;5070953;28;20122;-68
2023/12/12 11:20:42;;;;;;;29.58;18.73;;;;;;;;;;5071666;28;20045;-68
2023/12/12 11:23:08;;;;;;;32.95;21.92;;;12.90;78.10;;;;;;5071219;28;20080;-68
2023/12/12 11:25:38;;;;;;;33.83;19.48;;;;;;;;;;5071752;28;20079;-68
2023/12/12 11:28:04;;;;;;;32.72;19.35;;;12.90;78.70;;;;;;5070432;28;20048;-68
2023/12/12 11:30:34;;;;;;;32.13;18.65;;;12.90;74.60;;;;;;5070126;28;20090;-68
2023/12/12 11:33:01;;;;;;;33.00;18.67;;;;;;;;;;5070267;28;20094;-68
2023/12/12 11:35:31;;;;;;;39.38;22.27;;;13.10;72.80;;;;;;5078900;28;20070;-68
2023/12/12 11:37:59;;;;;;;31.05;19.95;;;13.00;76.90;;;;;;5091180;28;20130;-68
2023/12/12 11:40:26;;;;;;;30.08;19.17;;;13.00;76.40;;;;;;5064496;28;20048;-68
2023/12/12 11:42:54;;;;;;;36.63;22.10;;;13.10;73.80;;;;;;5072251;28;20048;-68
2023/12/12 11:45:30;;;;;;;37.88;21.00;;;13.10;72.30;;;;;;5071580;28;20032;-68
2023/12/12 11:47:58;;;;;;;35.85;21.05;;;13.50;69.90;;;;;;5071117;28;20036;-68
2023/12/12 11:50:24;;;;;;;35.25;21.20;;;13.10;74.10;;;;;;5070915;28;20140;-68
2023/12/12 11:52:50;;;;;;;33.63;20.15;;;12.90;72.70;;;;;;5069203;28;20135;-69
2023/12/12 11:55:20;;;;;;;34.80;20.77;;;;;;;;;;5071349;28;20131;-68
2023/12/12 11:57:46;;;;;;;36.08;20.95;;;13.40;72.60;;;;;;5069758;28;20040;-68
2023/12/12 12:00:17;;;;;;;38.17;21.65;;;;;;;;;;5066178;28;20094;-68
2023/12/12 12:02:43;;;;;;;33.67;20.35;;;;;;;;;;5066155;28;20086;-68
2023/12/12 12:05:09;;;;;;;36.10;20.70;;;;;;;;;;5062434;28;20120;-68
2023/12/12 12:07:38;;;;;;;39.50;22.42;;;;;;;;;;5059245;28;20400;-68
2023/12/12 12:10:05;;;;;;;36.00;21.02;;;;;;;;;;5053865;28;20512;-68
2023/12/12 12:12:30;;;;;;;33.80;21.20;;;13.50;67.30;;;;;;5067598;28;20047;-68
2023/12/12 12:15:06;;;;;;;33.72;22.83;;;;;;;;;;5063549;28;20040;-68
2023/12/12 12:17:35;;;;;;;37.55;21.95;;;;;;;;;;5066596;28;20103;-68
2023/12/12 12:20:02;;;;;;;40.22;22.02;;;;;;;;;;5060555;28;20040;-68
2023/12/12 12:22:28;;;;;;;36.58;22.75;;;13.50;67.60;;;;;;5059499;28;20033;-68
2023/12/12 12:24:54;;;;;;;42.00;23.10;;;;;;;;;;5066114;28;20448;-68
2023/12/12 12:27:21;;;;;;;39.53;23.02;;;;;;;;;;5064091;28;20094;-68
2023/12/12 12:30:00;;;;;;;36.13;22.13;;;13.50;70.00;;;;;;5065820;28;20071;-68
2023/12/12 12:32:26;;;;;;;39.65;23.95;;;13.40;70.10;;;;;;5067134;28;20074;-68
2023/12/12 12:35:12;;;;;;;45.67;24.88;;;13.90;71.80;;;;;;5069814;28;20464;-68
2023/12/12 12:37:39;;;;;;;43.83;24.67;;;13.30;72.80;;;;;;5066761;28;20512;-68
2023/12/12 12:40:11;;;;;;;36.55;22.30;;;13.50;70.50;;;;;;5069272;28;20359;-68
2023/12/12 12:42:38;;;;;;;40.65;23.25;;;;;;;;;;5070789;28;20190;-68
2023/12/12 12:45:04;;;;;;;53.05;27.48;;;;;;;;;;5068763;28;20124;-67
2023/12/12 12:47:31;;;;;;;39.53;23.25;;;13.70;78.10;;;;;;5091198;28;20040;-68
2023/12/12 12:49:58;;;;;;;39.08;22.63;;;13.80;78.40;;;;;;5089652;28;20036;-69
2023/12/12 12:52:24;;;;;;;37.92;22.35;;;13.70;80.20;;;;;;5091162;28;20047;-68
2023/12/12 12:54:49;;;;;;;38.40;22.90;;;13.30;79.30;;;;;;5089696;28;20044;-68
2023/12/12 12:57:15;;;;;;;41.15;22.27;;;;;;;;;;5072144;28;20059;-68
2023/12/12 12:59:41;;;;;;;48.60;25.00;;;13.80;82.40;;;;;;5069035;28;20048;-68
2023/12/12 13:02:07;;;;;;;36.97;21.65;;;13.60;81.10;;;;;;5069658;28;20450;-68
2023/12/12 13:04:38;;;;;;;35.05;21.55;;;13.90;83.20;;;;;;5069552;28;20059;-68
2023/12/12 13:07:05;;;;;;;42.92;24.08;;;13.40;84.80;;;;;;5069669;28;20086;-68
2023/12/12 13:09:31;;;;;;;42.72;24.00;;;14.10;81.60;;;;;;5070092;28;20040;-68
2023/12/12 13:11:58;;;;;;;40.33;24.10;;;;;;;;;;5073143;28;20047;-68
2023/12/12 13:14:25;;;;;;;41.20;22.83;;;13.70;80.70;;;;;;5072813;28;20049;-68
2023/12/12 13:16:51;;;;;;;41.53;22.55;;;13.80;84.40;;;;;;5074555;28;20041;-68
2023/12/12 13:19:17;;;;;;;40.78;22.90;;;;;;;;;;5072341;28;20036;-67
2023/12/12 13:21:43;;;;;;;40.30;23.27;;;13.60;84.90;;;;;;5074239;28;20072;-68
2023/12/12 13:24:08;;;;;;;40.42;23.85;;;13.90;84.90;;;;;;5074114;28;20076;-68
2023/12/12 13:26:34;;;;;;;46.60;24.70;;;;;;;;;;5072758;28;20041;-68
2023/12/12 13:29:00;;;;;;;44.30;23.70;;;13.50;83.80;;;;;;5072913;28;20097;-68
2023/12/12 13:31:25;;;;;;;42.22;22.42;;;13.50;84.00;;;;;;5073984;28;20123;-68
2023/12/12 13:33:52;;;;;;;49.65;25.05;;;13.70;86.90;;;;;;5074038;28;20043;-70
2023/12/12 13:36:22;;;;;;;43.63;24.73;;;13.80;84.50;;;;;;5088767;28;20048;-70
2023/12/12 13:38:48;;;;;;;42.83;23.00;;;13.70;88.50;;;;;;5093070;28;20385;-70
2023/12/12 13:41:14;;;;;;;48.35;25.02;;;13.90;88.20;;;;;;5075643;28;20047;-70
2023/12/12 13:43:40;;;;;;;45.75;23.38;;;;;;;;;;5092984;28;20047;-70
2023/12/12 13:46:06;;;;;;;47.00;25.63;;;;;;;;;;5093123;28;20195;-70